Time,TemperatureF,DewpointF,PressureIn,WindDirection,WindDirectionDegrees,WindSpeedMPH,WindSpeedGustMPH,Humidity,HourlyPrecipIn,Conditions,Clouds,dailyrainin,SoftwareType,DateUTC
2013-02-21 00:00:00,21.2,-1.0,30.01,SSW,202,3.1,3.6,37,0.00,,---,0.00,VWS V14.01,2013-02-21 05:00:00,
2013-02-21 00:05:00,21.2,-1.0,30.01,WSW,244,3.6,3.6,37,0.00,,---,0.00,VWS V14.01,2013-02-21 05:05:00,
2013-02-21 00:10:00,21.0,-1.2,29.98,SSW,199,5.4,6.3,37,0.00,,---,0.00,VWS V14.01,2013-02-21 05:10:00,
2013-02-21 00:15:00,21.2,-1.0,29.98,South,191,4.9,4.9,37,0.00,,---,0.00,VWS V14.01,2013-02-21 05:15:00,
2013-02-21 00:20:00,21.0,-1.2,29.98,WSW,237,0.0,0.0,37,0.00,,---,0.00,VWS V14.01,2013-02-21 05:20:00,
2013-02-21 00:25:00,20.8,-0.8,30.01,SW,220,0.0,0.0,38,0.00,,---,0.00,VWS V14.01,2013-02-21 05:25:00,
2013-02-21 00:30:00,20.7,-0.9,30.01,SW,220,0.0,0.0,38,0.00,,---,0.00,VWS V14.01,2013-02-21 05:30:00,
2013-02-21 00:36:00,20.3,-0.7,30.01,SW,220,0.0,0.0,39,0.00,,---,0.00,VWS V14.01,2013-02-21 05:36:00,
2013-02-21 00:41:00,20.1,-0.3,30.01,SW,220,0.0,0.0,40,0.00,,---,0.00,VWS V14.01,2013-02-21 05:41:00,
2013-02-21 00:46:00,19.9,0.0,30.01,ESE,112,0.0,2.7,41,0.00,,---,0.00,VWS V14.01,2013-02-21 05:46:00,
2013-02-21 00:51:00,20.3,0.4,30.01,ESE,105,0.0,0.0,41,0.00,,---,0.00,VWS V14.01,2013-02-21 05:51:00,
2013-02-21 00:56:00,20.5,0.0,30.01,South,175,2.7,2.7,40,0.00,,---,0.00,VWS V14.01,2013-02-21 05:56:00,
2013-02-21 01:01:00,20.5,-0.5,30.01,West,277,0.0,0.0,39,0.00,,---,0.00,VWS V14.01,2013-02-21 06:01:00,
2013-02-21 01:06:00,20.5,0.0,30.01,SSW,202,3.6,5.8,40,0.00,,---,0.00,VWS V14.01,2013-02-21 06:06:00,
2013-02-21 01:11:00,20.3,-0.2,30.01,WSW,239,2.7,3.6,40,0.00,,---,0.00,VWS V14.01,2013-02-21 06:11:00,
2013-02-21 01:16:00,20.3,-0.2,30.01,SW,231,3.6,6.3,40,0.00,,---,0.00,VWS V14.01,2013-02-21 06:16:00,
2013-02-21 01:21:00,20.3,-0.2,30.01,WSW,251,4.9,5.4,40,0.00,,---,0.00,VWS V14.01,2013-02-21 06:21:00,
2013-02-21 01:26:00,20.3,0.4,30.01,South,189,6.3,7.6,41,0.00,,---,0.00,VWS V14.01,2013-02-21 06:26:00,
2013-02-21 01:31:00,20.3,0.4,30.01,SW,227,2.7,2.7,41,0.00,,---,0.00,VWS V14.01,2013-02-21 06:31:00,
2013-02-21 01:36:00,20.1,0.2,30.01,SSE,150,3.1,3.1,41,0.00,,---,0.00,VWS V14.01,2013-02-21 06:36:00,
2013-02-21 01:41:00,20.1,0.2,30.01,WSW,257,2.7,3.1,41,0.00,,---,0.00,VWS V14.01,2013-02-21 06:41:00,
2013-02-21 01:46:00,19.9,0.0,30.01,West,261,2.2,2.2,41,0.00,,---,0.00,VWS V14.01,2013-02-21 06:46:00,
2013-02-21 01:51:00,19.8,0.4,30.01,SW,233,3.1,3.1,42,0.00,,---,0.00,VWS V14.01,2013-02-21 06:51:00,
2013-02-21 01:56:00,19.6,0.2,30.01,SSW,198,0.0,0.0,42,0.00,,---,0.00,VWS V14.01,2013-02-21 06:56:00,
2013-02-21 02:01:00,19.4,0.6,30.01,SW,223,3.6,4.0,43,0.00,,---,0.00,VWS V14.01,2013-02-21 07:01:00,
2013-02-21 02:06:00,19.2,0.4,30.01,West,272,2.2,2.2,43,0.00,,---,0.00,VWS V14.01,2013-02-21 07:06:00,
2013-02-21 02:11:00,19.0,0.2,30.01,South,187,2.2,3.6,43,0.00,,---,0.00,VWS V14.01,2013-02-21 07:11:00,
2013-02-21 02:16:00,18.7,-0.1,30.01,SSW,213,2.7,3.1,43,0.00,,---,0.00,VWS V14.01,2013-02-21 07:16:00,
2013-02-21 02:21:00,18.7,-0.1,30.01,SW,232,0.0,0.0,43,0.00,,---,0.00,VWS V14.01,2013-02-21 07:21:00,
2013-02-21 02:26:00,18.3,-0.4,30.01,South,169,2.7,2.7,43,0.00,,---,0.00,VWS V14.01,2013-02-21 07:26:00,
2013-02-21 02:31:00,18.1,-0.1,30.01,South,169,0.0,0.0,44,0.00,,---,0.00,VWS V14.01,2013-02-21 07:31:00,
2013-02-21 02:36:00,17.6,-0.1,30.01,South,169,0.0,0.0,45,0.00,,---,0.00,VWS V14.01,2013-02-21 07:36:00,
2013-02-21 02:41:00,17.4,-0.3,30.01,South,169,0.0,0.0,45,0.00,,---,0.00,VWS V14.01,2013-02-21 07:41:00,
2013-02-21 02:46:00,17.6,-0.1,30.01,West,280,0.0,2.7,45,0.00,,---,0.00,VWS V14.01,2013-02-21 07:46:00,
2013-02-21 02:51:00,17.8,0.1,30.01,North,353,0.0,0.0,45,0.00,,---,0.00,VWS V14.01,2013-02-21 07:51:00,
2013-02-21 02:56:00,17.6,-0.1,30.01,North,353,0.0,0.0,45,0.00,,---,0.00,VWS V14.01,2013-02-21 07:56:00,
2013-02-21 03:01:00,17.4,-0.3,30.01,North,353,0.0,0.0,45,0.00,,---,0.00,VWS V14.01,2013-02-21 08:01:00,
2013-02-21 03:06:00,17.4,-0.3,30.01,South,179,2.7,4.0,45,0.00,,---,0.00,VWS V14.01,2013-02-21 08:06:00,
2013-02-21 03:11:00,17.6,-0.1,30.01,WSW,248,0.0,0.0,45,0.00,,---,0.00,VWS V14.01,2013-02-21 08:11:00,
2013-02-21 03:16:00,17.6,-0.1,30.01,WSW,248,0.0,0.0,45,0.00,,---,0.00,VWS V14.01,2013-02-21 08:16:00,
2013-02-21 03:21:00,17.4,-0.3,30.01,WSW,237,3.1,5.4,45,0.00,,---,0.00,VWS V14.01,2013-02-21 08:21:00,
2013-02-21 03:27:00,17.4,-0.3,30.01,SSW,213,4.0,5.4,45,0.00,,---,0.00,VWS V14.01,2013-02-21 08:27:00,
2013-02-21 03:32:00,17.4,-0.3,30.01,WSW,248,3.1,3.1,45,0.00,,---,0.00,VWS V14.01,2013-02-21 08:32:00,
2013-02-21 03:37:00,17.4,-0.3,30.01,WSW,244,2.2,2.7,45,0.00,,---,0.00,VWS V14.01,2013-02-21 08:37:00,
2013-02-21 03:42:00,17.4,-0.3,30.01,WSW,243,2.7,3.6,45,0.00,,---,0.00,VWS V14.01,2013-02-21 08:42:00,
2013-02-21 03:47:00,17.4,-0.3,30.01,WSW,243,0.0,2.2,45,0.00,,---,0.00,VWS V14.01,2013-02-21 08:47:00,
2013-02-21 03:52:00,17.2,-0.4,30.01,SW,214,3.1,3.1,45,0.00,,---,0.00,VWS V14.01,2013-02-21 08:52:00,
2013-02-21 03:57:00,17.4,-0.3,30.01,SSW,207,4.9,5.8,45,0.00,,---,0.00,VWS V14.01,2013-02-21 08:57:00,
2013-02-21 04:02:00,17.4,0.2,30.01,SSW,197,5.8,5.8,46,0.00,,---,0.00,VWS V14.01,2013-02-21 09:02:00,
2013-02-21 04:07:00,17.4,0.2,30.01,SSW,210,0.0,3.1,46,0.00,,---,0.00,VWS V14.01,2013-02-21 09:07:00,
2013-02-21 04:12:00,17.2,0.0,30.01,SSW,212,2.2,3.1,46,0.00,,---,0.00,VWS V14.01,2013-02-21 09:12:00,
2013-02-21 04:17:00,17.1,-0.1,30.01,SSW,212,0.0,0.0,46,0.00,,---,0.00,VWS V14.01,2013-02-21 09:17:00,
2013-02-21 04:22:00,16.9,-0.8,30.01,WSW,250,2.2,3.6,45,0.00,,---,0.00,VWS V14.01,2013-02-21 09:22:00,
2013-02-21 04:27:00,16.7,-0.5,30.01,SW,224,3.1,3.1,46,0.00,,---,0.00,VWS V14.01,2013-02-21 09:27:00,
2013-02-21 04:32:00,16.7,-0.5,30.01,WSW,252,0.0,0.0,46,0.00,,---,0.00,VWS V14.01,2013-02-21 09:32:00,
2013-02-21 04:37:00,16.5,-0.6,30.01,SSW,201,3.1,3.1,46,0.00,,---,0.00,VWS V14.01,2013-02-21 09:37:00,
2013-02-21 04:42:00,16.5,-0.6,30.01,West,265,0.0,3.1,46,0.00,,---,0.00,VWS V14.01,2013-02-21 09:42:00,
2013-02-21 04:47:00,16.5,-0.6,30.01,SW,234,0.0,0.0,46,0.00,,---,0.00,VWS V14.01,2013-02-21 09:47:00,
2013-02-21 04:52:00,16.5,-0.6,30.01,WSW,248,0.0,0.0,46,0.00,,---,0.00,VWS V14.01,2013-02-21 09:52:00,
2013-02-21 04:57:00,16.5,-0.6,29.98,WSW,237,0.0,0.0,46,0.00,,---,0.00,VWS V14.01,2013-02-21 09:57:00,
2013-02-21 05:02:00,16.2,-1.0,29.98,SSW,209,0.0,2.2,46,0.00,,---,0.00,VWS V14.01,2013-02-21 10:02:00,
2013-02-21 05:07:00,16.3,-0.8,29.98,SSW,195,0.0,0.0,46,0.00,,---,0.00,VWS V14.01,2013-02-21 10:07:00,
2013-02-21 05:12:00,16.5,-0.6,30.01,SW,214,2.7,3.6,46,0.00,,---,0.00,VWS V14.01,2013-02-21 10:12:00,
2013-02-21 05:17:00,16.5,-0.6,30.01,SSW,199,0.0,0.0,46,0.00,,---,0.00,VWS V14.01,2013-02-21 10:17:00,
2013-02-21 05:22:00,16.5,-0.6,30.01,WSW,257,0.0,0.0,46,0.00,,---,0.00,VWS V14.01,2013-02-21 10:22:00,
2013-02-21 05:27:00,16.5,-0.6,30.01,SSW,211,0.0,0.0,46,0.00,,---,0.00,VWS V14.01,2013-02-21 10:27:00,
2013-02-21 05:32:00,16.7,-0.5,30.01,SW,216,2.7,2.7,46,0.00,,---,0.00,VWS V14.01,2013-02-21 10:32:00,
2013-02-21 05:37:00,16.7,-0.5,30.01,SW,225,2.7,2.7,46,0.00,,---,0.00,VWS V14.01,2013-02-21 10:37:00,
2013-02-21 05:42:00,16.7,-0.9,30.01,SW,214,0.0,0.0,45,0.00,,---,0.00,VWS V14.01,2013-02-21 10:42:00,
2013-02-21 05:47:00,16.7,-0.9,30.01,SW,223,0.0,0.0,45,0.00,,---,0.00,VWS V14.01,2013-02-21 10:47:00,
2013-02-21 05:52:00,16.7,-0.5,30.01,SW,215,0.0,0.0,46,0.00,,---,0.00,VWS V14.01,2013-02-21 10:52:00,
2013-02-21 05:57:00,16.5,-0.6,30.01,SW,221,0.0,0.0,46,0.00,,---,0.00,VWS V14.01,2013-02-21 10:57:00,
2013-02-21 06:02:00,16.2,-1.0,30.01,SSW,207,0.0,0.0,46,0.00,,---,0.00,VWS V14.01,2013-02-21 11:02:00,
2013-02-21 06:07:00,16.0,-1.1,30.01,SW,214,2.2,3.1,46,0.00,,---,0.00,VWS V14.01,2013-02-21 11:07:00,
2013-02-21 06:12:00,16.0,-1.1,30.01,SW,214,0.0,0.0,46,0.00,,---,0.00,VWS V14.01,2013-02-21 11:12:00,
2013-02-21 06:17:00,15.6,-1.0,30.01,SW,214,0.0,0.0,47,0.00,,---,0.00,VWS V14.01,2013-02-21 11:17:00,
2013-02-21 06:23:00,15.4,-1.2,30.01,SW,214,0.0,0.0,47,0.00,,---,0.00,VWS V14.01,2013-02-21 11:23:00,
2013-02-21 06:28:00,15.4,-1.2,30.01,SSW,213,0.0,0.0,47,0.00,,---,0.00,VWS V14.01,2013-02-21 11:28:00,
2013-02-21 06:33:00,15.4,-1.2,30.01,SSW,198,0.0,0.0,47,0.00,,---,0.00,VWS V14.01,2013-02-21 11:33:00,
2013-02-21 06:38:00,15.4,-1.2,30.01,SSW,198,0.0,0.0,47,0.00,,---,0.00,VWS V14.01,2013-02-21 11:38:00,
2013-02-21 06:43:00,15.3,-1.3,30.03,SSW,198,0.0,0.0,47,0.00,,---,0.00,VWS V14.01,2013-02-21 11:43:00,
2013-02-21 06:48:00,15.3,-0.9,30.03,SSW,198,0.0,0.0,48,0.00,,---,0.00,VWS V14.01,2013-02-21 11:48:00,
2013-02-21 06:53:00,15.1,-1.1,30.03,SSW,198,0.0,0.0,48,0.00,,---,0.00,VWS V14.01,2013-02-21 11:53:00,
2013-02-21 06:58:00,15.1,-1.1,30.03,SSW,198,0.0,0.0,48,0.00,,---,0.00,VWS V14.01,2013-02-21 11:58:00,
2013-02-21 07:03:00,14.9,-1.2,30.03,SSW,198,0.0,0.0,48,0.00,,---,0.00,VWS V14.01,2013-02-21 12:03:00,
2013-02-21 07:08:00,14.9,-1.2,30.03,SSW,198,0.0,0.0,48,0.00,,---,0.00,VWS V14.01,2013-02-21 12:08:00,
2013-02-21 07:13:00,14.9,-1.2,30.03,SSW,198,0.0,0.0,48,0.00,,---,0.00,VWS V14.01,2013-02-21 12:13:00,
2013-02-21 07:18:00,14.7,-1.4,30.03,SSW,198,0.0,0.0,48,0.00,,---,0.00,VWS V14.01,2013-02-21 12:18:00,
2013-02-21 07:23:00,14.5,-1.6,30.03,SSW,198,0.0,0.0,48,0.00,,---,0.00,VWS V14.01,2013-02-21 12:23:00,
2013-02-21 07:28:00,14.5,-1.6,30.03,SSW,198,0.0,0.0,48,0.00,,---,0.00,VWS V14.01,2013-02-21 12:28:00,
2013-02-21 07:33:00,14.5,-1.1,30.03,SSW,198,0.0,0.0,49,0.00,,---,0.00,VWS V14.01,2013-02-21 12:33:00,
2013-02-21 07:38:00,14.4,-1.3,30.03,SSW,198,0.0,0.0,49,0.00,,---,0.00,VWS V14.01,2013-02-21 12:38:00,
2013-02-21 07:43:00,14.5,-0.7,30.03,SSW,198,0.0,0.0,50,0.00,,---,0.00,VWS V14.01,2013-02-21 12:43:00,
2013-02-21 07:48:00,14.5,-0.7,30.03,SSW,198,0.0,0.0,50,0.00,,---,0.00,VWS V14.01,2013-02-21 12:48:00,
2013-02-21 07:53:00,14.5,-0.7,30.03,SSW,198,0.0,0.0,50,0.00,,---,0.00,VWS V14.01,2013-02-21 12:53:00,
2013-02-21 07:58:00,14.5,-0.7,30.03,SSW,198,0.0,0.0,50,0.00,,---,0.00,VWS V14.01,2013-02-21 12:58:00,
2013-02-21 08:03:00,14.9,0.1,30.03,SSW,198,0.0,0.0,51,0.00,,---,0.00,VWS V14.01,2013-02-21 13:03:00,
2013-02-21 08:08:00,14.9,-0.4,30.03,SSW,198,0.0,0.0,50,0.00,,---,0.00,VWS V14.01,2013-02-21 13:08:00,
2013-02-21 08:13:00,15.1,-0.2,30.03,SSE,147,0.0,0.0,50,0.00,,---,0.00,VWS V14.01,2013-02-21 13:13:00,
2013-02-21 08:18:00,15.1,-0.2,30.03,SSW,211,2.7,3.6,50,0.00,,---,0.00,VWS V14.01,2013-02-21 13:18:00,
2013-02-21 08:23:00,15.4,0.1,30.03,SW,215,2.7,3.1,50,0.00,,---,0.00,VWS V14.01,2013-02-21 13:23:00,
2013-02-21 08:29:00,15.8,0.0,30.03,SW,235,2.7,2.7,49,0.00,,---,0.00,VWS V14.01,2013-02-21 13:29:00,
2013-02-21 08:34:00,16.0,-0.2,30.03,WSW,254,0.0,0.0,48,0.00,,---,0.00,VWS V14.01,2013-02-21 13:34:00,
2013-02-21 08:39:00,16.2,-0.1,30.03,SE,139,0.0,0.0,48,0.00,,---,0.00,VWS V14.01,2013-02-21 13:39:00,
2013-02-21 08:44:00,16.3,-0.3,30.03,WSW,254,0.0,2.2,47,0.00,,---,0.00,VWS V14.01,2013-02-21 13:44:00,
2013-02-21 08:49:00,16.5,-0.6,30.03,SSW,211,2.7,3.6,46,0.00,,---,0.00,VWS V14.01,2013-02-21 13:49:00,
2013-02-21 08:54:00,16.9,-0.3,30.03,WSW,239,3.6,3.6,46,0.00,,---,0.00,VWS V14.01,2013-02-21 13:54:00,
2013-02-21 08:59:00,17.1,-0.1,30.06,SSW,199,2.7,3.1,46,0.00,,---,0.00,VWS V14.01,2013-02-21 13:59:00,
2013-02-21 09:04:00,17.4,-0.3,30.06,SW,217,6.3,6.3,45,0.00,,---,0.00,VWS V14.01,2013-02-21 14:04:00,
2013-02-21 09:09:00,17.8,0.1,30.06,WSW,243,2.7,3.6,45,0.00,,---,0.00,VWS V14.01,2013-02-21 14:09:00,
2013-02-21 09:14:00,18.1,-0.1,30.06,WSW,239,4.9,6.3,44,0.00,,---,0.00,VWS V14.01,2013-02-21 14:14:00,
2013-02-21 09:19:00,18.5,0.2,30.06,East,94,0.0,0.0,44,0.00,,---,0.00,VWS V14.01,2013-02-21 14:19:00,
2013-02-21 09:24:00,18.7,0.4,30.06,SW,228,3.6,3.6,44,0.00,,---,0.00,VWS V14.01,2013-02-21 14:24:00,
2013-02-21 09:29:00,19.0,0.7,30.06,WSW,245,3.1,3.1,44,0.00,,---,0.00,VWS V14.01,2013-02-21 14:29:00,
2013-02-21 09:34:00,19.6,0.7,30.06,South,182,3.6,3.6,43,0.00,,---,0.00,VWS V14.01,2013-02-21 14:34:00,
2013-02-21 09:39:00,19.9,1.1,30.06,SW,226,8.1,8.1,43,0.00,,---,0.00,VWS V14.01,2013-02-21 14:39:00,
2013-02-21 09:44:00,20.3,0.4,30.06,WSW,251,8.1,8.1,41,0.00,,---,0.00,VWS V14.01,2013-02-21 14:44:00,
2013-02-21 09:49:00,20.8,0.9,30.06,WSW,244,3.6,5.4,41,0.00,,---,0.00,VWS V14.01,2013-02-21 14:49:00,
2013-02-21 09:54:00,21.2,1.2,30.06,WSW,240,2.7,3.6,41,0.00,,---,0.00,VWS V14.01,2013-02-21 14:54:00,
2013-02-21 09:59:00,21.6,0.4,30.06,South,179,5.4,5.4,39,0.00,,---,0.00,VWS V14.01,2013-02-21 14:59:00,
2013-02-21 10:04:00,21.9,0.2,30.06,South,179,5.4,5.4,38,0.00,,---,0.00,VWS V14.01,2013-02-21 15:04:00,
2013-02-21 10:09:00,22.3,0.5,30.06,South,184,4.9,6.3,38,0.00,,---,0.00,VWS V14.01,2013-02-21 15:09:00,
2013-02-21 10:15:00,22.6,0.3,30.06,South,190,3.6,3.6,37,0.00,,---,0.00,VWS V14.01,2013-02-21 15:15:00,
2013-02-21 10:20:00,23.0,0.6,30.06,SW,220,6.3,7.6,37,0.00,,---,0.00,VWS V14.01,2013-02-21 15:20:00,
2013-02-21 10:26:00,23.4,0.4,30.06,SW,216,6.3,6.3,36,0.00,,---,0.00,VWS V14.01,2013-02-21 15:26:00,
2013-02-21 10:32:00,23.5,0.5,30.06,SW,217,0.0,0.0,36,0.00,,---,0.00,VWS V14.01,2013-02-21 15:32:00,
2013-02-21 10:37:00,23.9,0.8,30.06,WSW,243,8.7,8.7,36,0.00,,---,0.00,VWS V14.01,2013-02-21 15:37:00,
2013-02-21 10:42:00,24.4,0.7,30.06,SSW,209,4.0,5.4,35,0.00,,---,0.00,VWS V14.01,2013-02-21 15:42:00,
2013-02-21 10:47:00,25.0,1.2,30.06,South,183,3.6,4.9,35,0.00,,---,0.00,VWS V14.01,2013-02-21 15:47:00,
2013-02-21 10:52:00,25.7,1.9,30.06,SSW,202,3.1,3.1,35,0.00,,---,0.00,VWS V14.01,2013-02-21 15:52:00,
2013-02-21 10:57:00,26.2,1.7,30.06,WSW,248,0.0,2.7,34,0.00,,---,0.00,VWS V14.01,2013-02-21 15:57:00,
2013-02-21 11:02:00,26.8,2.2,30.06,SSW,200,3.6,6.3,34,0.00,,---,0.00,VWS V14.01,2013-02-21 16:02:00,
2013-02-21 11:07:00,27.5,2.2,30.06,SW,220,5.4,5.8,33,0.00,,---,0.00,VWS V14.01,2013-02-21 16:07:00,
2013-02-21 11:12:00,27.9,2.5,30.06,ENE,72,4.9,4.9,33,0.00,,---,0.00,VWS V14.01,2013-02-21 16:12:00,
2013-02-21 11:17:00,28.2,2.8,30.06,ESE,116,4.0,4.0,33,0.00,,---,0.00,VWS V14.01,2013-02-21 16:17:00,
2013-02-21 11:22:00,28.6,2.5,30.06,South,189,4.0,4.0,32,0.00,,---,0.00,VWS V14.01,2013-02-21 16:22:00,
2013-02-21 11:27:00,29.1,3.0,30.06,South,177,3.1,4.0,32,0.00,,---,0.00,VWS V14.01,2013-02-21 16:27:00,
2013-02-21 11:32:00,30.0,3.8,30.06,East,89,2.7,2.7,32,0.00,,---,0.00,VWS V14.01,2013-02-21 16:32:00,
2013-02-21 11:37:00,30.7,3.7,30.06,ESE,119,2.2,2.7,31,0.00,,---,0.00,VWS V14.01,2013-02-21 16:37:00,
2013-02-21 11:42:00,31.1,4.0,30.06,South,176,2.2,3.1,31,0.00,,---,0.00,VWS V14.01,2013-02-21 16:42:00,
2013-02-21 11:47:00,31.6,4.5,30.06,South,172,4.0,4.9,31,0.00,,---,0.00,VWS V14.01,2013-02-21 16:47:00,
2013-02-21 11:52:00,32.2,5.0,30.06,ENE,62,4.0,4.0,31,0.00,,---,0.00,VWS V14.01,2013-02-21 16:52:00,
2013-02-21 11:57:00,32.7,5.4,30.06,East,88,2.7,2.7,31,0.00,,---,0.00,VWS V14.01,2013-02-21 16:57:00,
2013-02-21 12:02:00,32.7,5.4,30.06,SSW,193,4.0,4.0,31,0.00,,---,0.00,VWS V14.01,2013-02-21 17:02:00,
2013-02-21 12:07:00,32.5,5.3,30.06,South,186,0.0,0.0,31,0.00,,---,0.00,VWS V14.01,2013-02-21 17:07:00,
2013-02-21 12:13:00,33.1,5.8,30.06,SW,223,3.6,4.0,31,0.00,,---,0.00,VWS V14.01,2013-02-21 17:13:00,
2013-02-21 12:18:00,33.3,5.9,30.06,South,171,4.9,5.4,31,0.00,,---,0.00,VWS V14.01,2013-02-21 17:18:00,
2013-02-21 12:23:00,33.6,5.5,30.06,West,276,0.0,5.4,30,0.00,,---,0.00,VWS V14.01,2013-02-21 17:23:00,
2013-02-21 12:28:00,34.0,5.8,30.06,ESE,120,0.0,2.2,30,0.00,,---,0.00,VWS V14.01,2013-02-21 17:28:00,
2013-02-21 12:33:00,35.1,6.8,30.06,SSW,200,2.7,3.1,30,0.00,,---,0.00,VWS V14.01,2013-02-21 17:33:00,
2013-02-21 12:38:00,36.0,7.6,30.06,SSE,166,3.6,3.6,30,0.00,,---,0.00,VWS V14.01,2013-02-21 17:38:00,
2013-02-21 12:43:00,36.3,7.1,30.06,South,176,2.7,3.1,29,0.00,,---,0.00,VWS V14.01,2013-02-21 17:43:00,
2013-02-21 12:48:00,36.7,8.2,30.06,SW,234,2.7,2.7,30,0.00,,---,0.00,VWS V14.01,2013-02-21 17:48:00,
2013-02-21 12:53:00,37.0,7.8,30.06,ENE,63,0.0,2.7,29,0.00,,---,0.00,VWS V14.01,2013-02-21 17:53:00,
2013-02-21 12:58:00,37.2,7.9,30.03,SSE,165,3.6,4.0,29,0.00,,---,0.00,VWS V14.01,2013-02-21 17:58:00,
2013-02-21 13:03:00,37.2,7.9,30.03,SSW,192,7.2,7.2,29,0.00,,---,0.00,VWS V14.01,2013-02-21 18:03:00,
2013-02-21 13:08:00,37.2,7.9,30.03,West,267,0.0,3.1,29,0.00,,---,0.00,VWS V14.01,2013-02-21 18:08:00,
2013-02-21 13:13:00,37.4,5.7,30.03,SE,138,2.7,3.1,26,0.00,,---,0.00,VWS V14.01,2013-02-21 18:13:00,
2013-02-21 13:18:00,37.8,6.0,30.03,ESE,122,2.7,2.7,26,0.00,,---,0.00,VWS V14.01,2013-02-21 18:18:00,
2013-02-21 13:23:00,38.1,6.3,30.03,SSE,156,2.2,4.9,26,0.00,,---,0.00,VWS V14.01,2013-02-21 18:23:00,
2013-02-21 13:28:00,37.9,6.1,30.03,NE,47,2.7,3.6,26,0.00,,---,0.00,VWS V14.01,2013-02-21 18:28:00,
2013-02-21 13:33:00,38.1,6.3,30.03,SSW,210,4.0,4.0,26,0.00,,---,0.00,VWS V14.01,2013-02-21 18:33:00,
2013-02-21 13:38:00,38.5,6.6,30.03,SW,218,2.7,2.7,26,0.00,,---,0.00,VWS V14.01,2013-02-21 18:38:00,
2013-02-21 13:44:00,38.7,6.7,30.03,East,81,4.5,6.3,26,0.00,,---,0.00,VWS V14.01,2013-02-21 18:44:00,
2013-02-21 13:49:00,38.7,6.7,30.03,ENE,71,6.3,6.3,26,0.00,,---,0.00,VWS V14.01,2013-02-21 18:49:00,
2013-02-21 13:54:00,38.5,6.6,30.03,SSW,196,4.9,4.9,26,0.00,,---,0.00,VWS V14.01,2013-02-21 18:54:00,
2013-02-21 13:59:00,39.4,7.4,30.03,SSE,163,3.6,6.3,26,0.00,,---,0.00,VWS V14.01,2013-02-21 18:59:00,
2013-02-21 14:04:00,40.1,8.0,30.03,South,186,2.7,5.4,26,0.00,,---,0.00,VWS V14.01,2013-02-21 19:04:00,
2013-02-21 14:09:00,40.8,8.6,30.03,South,187,2.7,5.4,26,0.00,,---,0.00,VWS V14.01,2013-02-21 19:09:00,
2013-02-21 14:14:00,41.2,8.9,30.03,ESE,110,3.1,3.6,26,0.00,,---,0.00,VWS V14.01,2013-02-21 19:14:00,
2013-02-21 14:19:00,41.0,6.1,30.03,SW,235,4.9,4.9,23,0.00,,---,0.00,VWS V14.01,2013-02-21 19:19:00,
2013-02-21 14:24:00,41.5,9.2,30.03,SSE,165,4.0,4.0,26,0.00,,---,0.00,VWS V14.01,2013-02-21 19:24:00,
2013-02-21 14:29:00,42.3,7.1,30.03,South,187,3.6,3.6,23,0.00,,---,0.00,VWS V14.01,2013-02-21 19:29:00,
2013-02-21 14:34:00,42.4,7.3,30.03,ESE,117,0.0,0.0,23,0.00,,---,0.00,VWS V14.01,2013-02-21 19:34:00,
2013-02-21 14:39:00,42.6,7.4,30.03,NE,55,2.2,2.7,23,0.00,,---,0.00,VWS V14.01,2013-02-21 19:39:00,
2013-02-21 14:44:00,42.4,7.3,30.01,ESE,122,4.9,4.9,23,0.00,,---,0.00,VWS V14.01,2013-02-21 19:44:00,
2013-02-21 14:49:00,42.3,7.1,30.01,ESE,113,0.0,2.2,23,0.00,,---,0.00,VWS V14.01,2013-02-21 19:49:00,
2013-02-21 14:54:00,43.0,9.6,30.01,WSW,241,3.1,3.1,25,0.00,,---,0.00,VWS V14.01,2013-02-21 19:54:00,
2013-02-21 14:59:00,44.1,8.6,30.01,SSW,198,2.7,2.7,23,0.00,,---,0.00,VWS V14.01,2013-02-21 19:59:00,
2013-02-21 15:04:00,44.1,8.6,30.01,West,280,0.0,0.0,23,0.00,,---,0.00,VWS V14.01,2013-02-21 20:04:00,
2013-02-21 15:09:00,44.2,8.8,30.01,SSW,208,5.4,5.8,23,0.00,,---,0.00,VWS V14.01,2013-02-21 20:09:00,
2013-02-21 15:14:00,43.7,8.3,30.01,SE,136,0.0,3.6,23,0.00,,---,0.00,VWS V14.01,2013-02-21 20:14:00,
2013-02-21 15:19:00,44.1,8.6,30.01,ENE,74,2.7,2.7,23,0.00,,---,0.00,VWS V14.01,2013-02-21 20:19:00,
2013-02-21 15:25:00,43.9,8.5,30.01,ESE,120,2.2,3.1,23,0.00,,---,0.00,VWS V14.01,2013-02-21 20:25:00,
2013-02-21 15:30:00,44.2,8.8,30.01,WSW,247,4.0,4.0,23,0.00,,---,0.00,VWS V14.01,2013-02-21 20:30:00,
2013-02-21 15:35:00,44.6,8.1,30.01,ESE,117,0.0,2.7,22,0.00,,---,0.00,VWS V14.01,2013-02-21 20:35:00,
2013-02-21 15:40:00,45.3,8.7,30.01,WSW,245,5.4,5.4,22,0.00,,---,0.00,VWS V14.01,2013-02-21 20:40:00,
2013-02-21 15:45:00,45.7,9.0,30.03,NW,321,0.0,2.7,22,0.00,,---,0.00,VWS V14.01,2013-02-21 20:45:00,
2013-02-21 15:50:00,46.0,9.3,30.03,South,171,2.7,3.6,22,0.00,,---,0.00,VWS V14.01,2013-02-21 20:50:00,
2013-02-21 15:55:00,45.9,9.2,30.03,SE,129,4.0,4.0,22,0.00,,---,0.00,VWS V14.01,2013-02-21 20:55:00,
2013-02-21 16:00:00,45.0,8.4,30.03,SSW,201,2.7,2.7,22,0.00,,---,0.00,VWS V14.01,2013-02-21 21:00:00,
2013-02-21 16:05:00,45.1,8.6,30.03,WSW,253,4.0,5.4,22,0.00,,---,0.00,VWS V14.01,2013-02-21 21:05:00,
2013-02-21 16:10:00,44.8,8.3,30.03,SW,218,2.2,2.7,22,0.00,,---,0.00,VWS V14.01,2013-02-21 21:10:00,
2013-02-21 16:15:00,45.0,8.4,30.03,NE,53,2.2,2.2,22,0.00,,---,0.00,VWS V14.01,2013-02-21 21:15:00,
2013-02-21 16:20:00,45.1,8.6,30.03,SW,229,0.0,0.0,22,0.00,,---,0.00,VWS V14.01,2013-02-21 21:20:00,
2013-02-21 16:25:00,45.9,9.2,30.03,SSW,199,0.0,4.9,22,0.00,,---,0.00,VWS V14.01,2013-02-21 21:25:00,
2013-02-21 16:30:00,46.0,9.3,30.03,SW,228,2.2,3.1,22,0.00,,---,0.00,VWS V14.01,2013-02-21 21:30:00,
2013-02-21 16:35:00,46.0,9.3,30.03,SSW,210,4.0,5.4,22,0.00,,---,0.00,VWS V14.01,2013-02-21 21:35:00,
2013-02-21 16:40:00,45.3,8.7,30.03,SW,218,3.1,4.0,22,0.00,,---,0.00,VWS V14.01,2013-02-21 21:40:00,
2013-02-21 16:45:00,44.8,8.3,30.03,SW,220,2.7,3.6,22,0.00,,---,0.00,VWS V14.01,2013-02-21 21:45:00,
2013-02-21 16:50:00,44.4,8.9,30.03,SW,218,3.1,3.1,23,0.00,,---,0.00,VWS V14.01,2013-02-21 21:50:00,
2013-02-21 16:55:00,44.1,8.6,30.03,SSW,204,3.6,3.6,23,0.00,,---,0.00,VWS V14.01,2013-02-21 21:55:00,
2013-02-21 17:01:00,43.7,8.3,30.03,SSW,210,0.0,0.0,23,0.00,,---,0.00,VWS V14.01,2013-02-21 22:01:00,
2013-02-21 17:06:00,43.0,7.7,30.03,SSW,210,0.0,0.0,23,0.00,,---,0.00,VWS V14.01,2013-02-21 22:06:00,
2013-02-21 17:11:00,42.4,7.3,30.06,SSW,210,0.0,0.0,23,0.00,,---,0.00,VWS V14.01,2013-02-21 22:11:00,
2013-02-21 17:16:00,41.5,6.5,30.06,SSW,210,0.0,0.0,23,0.00,,---,0.00,VWS V14.01,2013-02-21 22:16:00,
2013-02-21 17:21:00,41.0,6.1,30.06,SSW,210,0.0,0.0,23,0.00,,---,0.00,VWS V14.01,2013-02-21 22:21:00,
2013-02-21 17:26:00,40.1,5.3,30.06,SSW,210,0.0,0.0,23,0.00,,---,0.00,VWS V14.01,2013-02-21 22:26:00,
2013-02-21 17:31:00,39.4,4.7,30.06,East,100,0.0,0.0,23,0.00,,---,0.00,VWS V14.01,2013-02-21 22:31:00,
2013-02-21 17:36:00,38.8,5.2,30.06,East,100,0.0,0.0,24,0.00,,---,0.00,VWS V14.01,2013-02-21 22:36:00,
2013-02-21 17:41:00,38.1,6.3,30.06,East,81,3.1,3.1,26,0.00,,---,0.00,VWS V14.01,2013-02-21 22:41:00,
2013-02-21 17:46:00,37.4,5.7,30.06,ENE,67,2.7,2.7,26,0.00,,---,0.00,VWS V14.01,2013-02-21 22:46:00,
2013-02-21 17:51:00,36.7,7.4,30.06,ENE,65,4.0,4.0,29,0.00,,---,0.00,VWS V14.01,2013-02-21 22:51:00,
2013-02-21 17:56:00,36.0,6.8,30.06,ENE,64,3.1,3.1,29,0.00,,---,0.00,VWS V14.01,2013-02-21 22:56:00,
2013-02-21 18:01:00,35.4,7.1,30.06,ENE,61,4.0,4.0,30,0.00,,---,0.00,VWS V14.01,2013-02-21 23:01:00,
2013-02-21 18:06:00,34.9,6.6,30.06,ENE,60,3.6,3.6,30,0.00,,---,0.00,VWS V14.01,2013-02-21 23:06:00,
2013-02-21 18:11:00,34.5,7.0,30.06,NE,52,3.1,4.9,31,0.00,,---,0.00,VWS V14.01,2013-02-21 23:11:00,
2013-02-21 18:16:00,34.3,6.9,30.06,NE,52,4.0,4.0,31,0.00,,---,0.00,VWS V14.01,2013-02-21 23:16:00,
2013-02-21 18:21:00,34.0,6.5,30.06,NE,52,4.0,4.0,31,0.00,,---,0.00,VWS V14.01,2013-02-21 23:21:00,
2013-02-21 18:26:00,33.8,6.4,30.06,NE,52,3.1,4.0,31,0.00,,---,0.00,VWS V14.01,2013-02-21 23:26:00,
2013-02-21 18:31:00,33.6,6.9,30.06,NE,52,4.5,4.5,32,0.00,,---,0.00,VWS V14.01,2013-02-21 23:31:00,
2013-02-21 18:36:00,33.4,6.8,30.06,NE,52,3.1,3.1,32,0.00,,---,0.00,VWS V14.01,2013-02-21 23:36:00,
2013-02-21 18:41:00,33.3,6.6,30.06,NE,52,2.7,3.1,32,0.00,,---,0.00,VWS V14.01,2013-02-21 23:41:00,
2013-02-21 18:46:00,33.3,6.6,30.06,NE,52,3.6,4.0,32,0.00,,---,0.00,VWS V14.01,2013-02-21 23:46:00,
2013-02-21 18:51:00,33.1,7.1,30.06,NE,52,3.1,4.0,33,0.00,,---,0.00,VWS V14.01,2013-02-21 23:51:00,
2013-02-21 18:56:00,33.1,7.1,30.06,NE,52,3.1,3.6,33,0.00,,---,0.00,VWS V14.01,2013-02-21 23:56:00,
2013-02-21 19:01:00,33.1,7.1,30.06,NE,51,3.6,4.5,33,0.00,,---,0.00,VWS V14.01,2013-02-22 00:01:00,
2013-02-21 19:06:00,33.1,7.1,30.06,NE,51,2.7,4.0,33,0.00,,---,0.00,VWS V14.01,2013-02-22 00:06:00,
2013-02-21 19:11:00,32.9,7.6,30.06,NE,51,3.6,4.0,34,0.00,,---,0.00,VWS V14.01,2013-02-22 00:11:00,
2013-02-21 19:16:00,32.7,7.5,30.06,NE,51,3.1,3.6,34,0.00,,---,0.00,VWS V14.01,2013-02-22 00:16:00,
2013-02-21 19:21:00,32.9,7.6,30.06,NE,51,3.1,4.0,34,0.00,,---,0.00,VWS V14.01,2013-02-22 00:21:00,
2013-02-21 19:26:00,32.9,7.6,30.09,NE,51,2.2,2.7,34,0.00,,---,0.00,VWS V14.01,2013-02-22 00:26:00,
2013-02-21 19:32:00,32.7,8.1,30.09,NE,51,0.0,0.0,35,0.00,,---,0.00,VWS V14.01,2013-02-22 00:32:00,
2013-02-21 19:37:00,32.7,8.1,30.09,NE,51,2.7,3.6,35,0.00,,---,0.00,VWS V14.01,2013-02-22 00:37:00,
2013-02-21 19:42:00,32.7,8.1,30.09,NE,51,3.1,3.6,35,0.00,,---,0.00,VWS V14.01,2013-02-22 00:42:00,
2013-02-21 19:47:00,32.7,8.1,30.09,NE,51,3.6,3.6,35,0.00,,---,0.00,VWS V14.01,2013-02-22 00:47:00,
2013-02-21 19:52:00,32.7,8.1,30.09,NE,51,3.1,3.6,35,0.00,,---,0.00,VWS V14.01,2013-02-22 00:52:00,
2013-02-21 19:57:00,32.7,8.1,30.09,NE,51,2.7,3.1,35,0.00,,---,0.00,VWS V14.01,2013-02-22 00:57:00,
2013-02-21 20:02:00,32.9,8.3,30.09,NE,51,2.7,2.7,35,0.00,,---,0.00,VWS V14.01,2013-02-22 01:02:00,
2013-02-21 20:07:00,32.9,8.3,30.09,NE,51,3.6,3.6,35,0.00,,---,0.00,VWS V14.01,2013-02-22 01:07:00,
2013-02-21 20:12:00,32.9,8.3,30.09,NE,51,3.1,3.1,35,0.00,,---,0.00,VWS V14.01,2013-02-22 01:12:00,
2013-02-21 20:17:00,32.9,8.3,30.09,NE,51,0.0,0.0,35,0.00,,---,0.00,VWS V14.01,2013-02-22 01:17:00,
2013-02-21 20:22:00,32.9,8.9,30.09,NE,51,0.0,0.0,36,0.00,,---,0.00,VWS V14.01,2013-02-22 01:22:00,
2013-02-21 20:27:00,32.7,8.7,30.09,NE,51,0.0,0.0,36,0.00,,---,0.00,VWS V14.01,2013-02-22 01:27:00,
2013-02-21 20:32:00,32.5,9.2,30.09,NE,51,0.0,0.0,37,0.00,,---,0.00,VWS V14.01,2013-02-22 01:32:00,
2013-02-21 20:37:00,32.5,8.6,30.09,West,280,0.0,0.0,36,0.00,,---,0.00,VWS V14.01,2013-02-22 01:37:00,
2013-02-21 20:42:00,32.7,8.7,30.09,West,280,0.0,0.0,36,0.00,,---,0.00,VWS V14.01,2013-02-22 01:42:00,
2013-02-21 20:47:00,32.5,8.6,30.09,North,357,0.0,0.0,36,0.00,,---,0.00,VWS V14.01,2013-02-22 01:47:00,
2013-02-21 20:52:00,32.5,8.6,30.09,WSW,241,0.0,0.0,36,0.00,,---,0.00,VWS V14.01,2013-02-22 01:52:00,
2013-02-21 20:57:00,32.5,8.6,30.09,WSW,241,0.0,0.0,36,0.00,,---,0.00,VWS V14.01,2013-02-22 01:57:00,
2013-02-21 21:02:00,32.4,7.8,30.09,WSW,244,0.0,0.0,35,0.00,,---,0.00,VWS V14.01,2013-02-22 02:02:00,
2013-02-21 21:07:00,32.5,7.3,30.09,WSW,246,0.0,0.0,34,0.00,,---,0.00,VWS V14.01,2013-02-22 02:07:00,
2013-02-21 21:12:00,32.5,7.3,30.09,WSW,246,0.0,0.0,34,0.00,,---,0.00,VWS V14.01,2013-02-22 02:12:00,
2013-02-21 21:17:00,32.4,7.1,30.09,WSW,246,0.0,0.0,34,0.00,,---,0.00,VWS V14.01,2013-02-22 02:17:00,
2013-02-21 21:22:00,32.2,7.0,30.09,WNW,283,3.6,3.6,34,0.00,,---,0.00,VWS V14.01,2013-02-22 02:22:00,
2013-02-21 21:27:00,32.2,7.0,30.09,NNE,30,0.0,0.0,34,0.00,,---,0.00,VWS V14.01,2013-02-22 02:27:00,
2013-02-21 21:32:00,31.8,7.3,30.09,WNW,300,4.0,4.0,35,0.00,,---,0.00,VWS V14.01,2013-02-22 02:32:00,
2013-02-21 21:37:00,31.8,6.7,30.09,NNE,16,0.0,0.0,34,0.00,,---,0.00,VWS V14.01,2013-02-22 02:37:00,
2013-02-21 21:43:00,31.8,6.7,30.06,NNE,27,2.7,3.1,34,0.00,,---,0.00,VWS V14.01,2013-02-22 02:43:00,
2013-02-21 21:48:00,32.5,6.6,30.06,NE,37,2.2,4.9,33,0.00,,---,0.00,VWS V14.01,2013-02-22 02:48:00,
2013-02-21 21:53:00,33.1,7.1,30.06,NNW,328,2.7,4.0,33,0.00,,---,0.00,VWS V14.01,2013-02-22 02:53:00,
2013-02-21 21:58:00,33.3,7.3,30.09,North,1,0.0,0.0,33,0.00,,---,0.00,VWS V14.01,2013-02-22 02:58:00,
2013-02-21 22:03:00,33.3,7.3,30.09,North,1,0.0,0.0,33,0.00,,---,0.00,VWS V14.01,2013-02-22 03:03:00,
2013-02-21 22:08:00,33.1,7.1,30.09,NE,54,0.0,0.0,33,0.00,,---,0.00,VWS V14.01,2013-02-22 03:08:00,
2013-02-21 22:13:00,32.9,7.0,30.09,SSW,199,2.7,2.7,33,0.00,,---,0.00,VWS V14.01,2013-02-22 03:13:00,
2013-02-21 22:18:00,32.9,7.0,30.09,SSW,201,0.0,0.0,33,0.00,,---,0.00,VWS V14.01,2013-02-22 03:18:00,
2013-02-21 22:23:00,32.7,6.8,30.09,SSW,201,0.0,0.0,33,0.00,,---,0.00,VWS V14.01,2013-02-22 03:23:00,
2013-02-21 22:28:00,32.5,6.0,30.09,ESE,106,5.4,5.4,32,0.00,,---,0.00,VWS V14.01,2013-02-22 03:28:00,
2013-02-21 22:33:00,32.5,6.0,30.09,NE,53,0.0,0.0,32,0.00,,---,0.00,VWS V14.01,2013-02-22 03:33:00,
2013-02-21 22:38:00,32.4,5.8,30.09,ENE,62,3.6,3.6,32,0.00,,---,0.00,VWS V14.01,2013-02-22 03:38:00,
2013-02-21 22:43:00,32.4,5.8,30.09,ESE,115,3.1,4.9,32,0.00,,---,0.00,VWS V14.01,2013-02-22 03:43:00,
2013-02-21 22:48:00,32.2,5.7,30.09,ENE,63,0.0,0.0,32,0.00,,---,0.00,VWS V14.01,2013-02-22 03:48:00,
2013-02-21 22:53:00,32.0,5.5,30.09,ENE,63,0.0,0.0,32,0.00,,---,0.00,VWS V14.01,2013-02-22 03:53:00,
2013-02-21 22:58:00,31.8,5.3,30.09,West,276,2.7,2.7,32,0.00,,---,0.00,VWS V14.01,2013-02-22 03:58:00,
2013-02-21 23:03:00,31.6,5.2,30.09,West,276,0.0,0.0,32,0.00,,---,0.00,VWS V14.01,2013-02-22 04:03:00,
2013-02-21 23:08:00,31.6,5.2,30.09,West,276,0.0,0.0,32,0.00,,---,0.00,VWS V14.01,2013-02-22 04:08:00,
2013-02-21 23:13:00,31.5,5.0,30.12,West,279,0.0,0.0,32,0.00,,---,0.00,VWS V14.01,2013-02-22 04:13:00,
2013-02-21 23:18:00,31.5,5.0,30.12,NNW,329,0.0,3.1,32,0.00,,---,0.00,VWS V14.01,2013-02-22 04:18:00,
2013-02-21 23:24:00,31.5,5.7,30.12,West,279,0.0,2.2,33,0.00,,---,0.00,VWS V14.01,2013-02-22 04:24:00,
2013-02-21 23:29:00,31.5,5.7,30.12,ENE,59,3.1,3.1,33,0.00,,---,0.00,VWS V14.01,2013-02-22 04:29:00,
2013-02-21 23:34:00,31.5,5.0,30.12,East,93,3.6,4.0,32,0.00,,---,0.00,VWS V14.01,2013-02-22 04:34:00,
2013-02-21 23:39:00,31.5,5.7,30.12,ENE,64,0.0,0.0,33,0.00,,---,0.00,VWS V14.01,2013-02-22 04:39:00,
2013-02-21 23:44:00,31.5,5.7,30.12,ENE,64,0.0,0.0,33,0.00,,---,0.00,VWS V14.01,2013-02-22 04:44:00,
2013-02-21 23:49:00,31.5,5.0,30.12,ENE,64,0.0,0.0,32,0.00,,---,0.00,VWS V14.01,2013-02-22 04:49:00,
2013-02-21 23:54:00,31.5,5.0,30.12,East,93,2.7,2.7,32,0.00,,---,0.00,VWS V14.01,2013-02-22 04:54:00,
2013-02-21 23:59:00,31.5,5.0,30.12,ENE,69,0.0,2.7,32,0.00,,---,0.00,VWS V14.01,2013-02-22 04:59:00,